Time;durP1;ratioP1;P1;durP2;ratioP2;P2;SDS_P1;SDS_P2;PMS_P1;PMS_P2;Temp;Humidity;BMP_temperature;BMP_pressure;BME280_temperature;BME280_humidity;BME280_pressure;Samples;Min_cycle;Max_cycle;Signal;HPM_P1;HPM_P2
2023/07/26 00:00:43;;;;;;;3.35;2.15;;;;;;;;;;10528559;28;20044;-77
2023/07/26 00:05:47;;;;;;;3.53;1.88;;;;;;;;;;10536168;28;20035;-77
2023/07/26 00:10:50;;;;;;;4.40;2.28;;;;;;;;;;10531376;28;20108;-77
2023/07/26 00:15:54;;;;;;;5.30;2.08;;;;;;;;;;10530701;28;20051;-77
2023/07/26 00:20:56;;;;;;;3.97;1.80;;;;;;;;;;10535464;28;20040;-78
2023/07/26 00:25:59;;;;;;;3.63;2.20;;;;;;;;;;10524859;28;20109;-78
2023/07/26 00:31:03;;;;;;;4.45;2.03;;;;;;;;;;10520064;28;20123;-78
2023/07/26 00:36:06;;;;;;;4.47;2.13;;;;;;;;;;10529080;28;20032;-77
2023/07/26 00:41:09;;;;;;;4.82;2.10;;;;;;;;;;10536993;28;20075;-78
2023/07/26 00:46:13;;;;;;;3.13;1.95;;;;;;;;;;10532634;28;20068;-78
2023/07/26 00:51:15;;;;;;;3.13;1.48;;;;;;;;;;10524467;28;20424;-78
2023/07/26 00:56:18;;;;;;;10.60;2.60;;;;;;;;;;10530722;28;20105;-78
2023/07/26 01:01:22;;;;;;;3.55;2.08;;;;;;;;;;10533623;28;20064;-78
2023/07/26 01:06:30;;;;;;;4.32;2.42;;;;;;;;;;10533207;28;20530;-77
2023/07/26 01:11:35;;;;;;;7.05;3.00;;;;;;;;;;10547494;28;20093;-78
2023/07/26 01:16:39;;;;;;;5.90;3.00;;;;;;;;;;10572219;28;20102;-77
2023/07/26 01:21:43;;;;;;;5.50;2.63;;;;;;;;;;10568797;28;20142;-77
2023/07/26 01:26:46;;;;;;;6.43;3.00;;;;;;;;;;10549377;28;20056;-76
2023/07/26 01:31:48;;;;;;;7.72;2.65;;;;;;;;;;10527568;28;20036;-76
2023/07/26 01:36:53;;;;;;;6.80;3.42;;;;;;;;;;10525898;28;20041;-76
2023/07/26 01:41:56;;;;;;;8.07;3.65;;;;;;;;;;10520590;28;20123;-78
2023/07/26 01:46:59;;;;;;;9.57;3.63;;;;;;;;;;10528342;28;20051;-77
2023/07/26 01:52:04;;;;;;;8.88;3.95;;;;;;;;;;10524401;28;20115;-77
2023/07/26 01:57:07;;;;;;;8.82;3.60;;;;;;;;;;10520050;28;20036;-77
2023/07/26 02:02:10;;;;;;;9.60;3.60;;;;;;;;;;10518996;28;20032;-76
2023/07/26 02:07:14;;;;;;;9.23;4.00;;;;;;;;;;10523635;28;20450;-75
2023/07/26 02:12:18;;;;;;;9.13;3.90;;;;;;;;;;10522806;28;20031;-77
2023/07/26 02:17:21;;;;;;;9.43;4.15;;;;;;;;;;10522239;28;20093;-76
2023/07/26 02:22:25;;;;;;;8.20;3.72;;;;;;;;;;10520864;28;20119;-77
2023/07/26 02:27:29;;;;;;;9.48;4.05;;;;;;;;;;10525559;28;20098;-78
2023/07/26 02:32:31;;;;;;;9.20;3.95;;;;;;;;;;10526664;28;20360;-77
2023/07/26 02:37:35;;;;;;;8.98;4.07;;;;;;;;;;10541738;28;20040;-76
2023/07/26 02:42:38;;;;;;;8.15;3.88;;;;;;;;;;10531780;28;20119;-77
2023/07/26 02:47:41;;;;;;;9.07;4.10;;;;;;;;;;10532972;28;20056;-77
2023/07/26 02:52:45;;;;;;;9.60;4.10;;;;;;;;;;10531661;28;20062;-77
2023/07/26 02:57:48;;;;;;;10.05;3.90;;;;;;;;;;10531668;28;20129;-76
2023/07/26 03:02:51;;;;;;;9.47;3.80;;;;;;;;;;10531726;28;20044;-77
2023/07/26 03:07:56;;;;;;;8.63;5.00;;;;;;;;;;10528177;28;20289;-77
2023/07/26 03:12:58;;;;;;;8.55;4.60;;;;;;;;;;10530793;28;20473;-77
2023/07/26 03:18:03;;;;;;;7.37;3.53;;;;;;;;;;10520397;28;20468;-77
2023/07/26 03:23:07;;;;;;;9.50;3.72;;;;;;;;;;10530675;28;20551;-76
2023/07/26 03:28:11;;;;;;;5.03;2.97;;;;;;;;;;10534317;28;20032;-77
2023/07/26 03:33:14;;;;;;;9.35;4.15;;;;;;;;;;10523098;28;20139;-76
2023/07/26 03:38:18;;;;;;;9.38;4.10;;;;;;;;;;10523674;28;20511;-78
2023/07/26 03:43:21;;;;;;;8.68;3.70;;;;;;;;;;10533190;28;20065;-77
2023/07/26 03:48:24;;;;;;;11.27;4.83;;;;;;;;;;10531661;28;20036;-77
2023/07/26 03:53:28;;;;;;;6.95;3.28;;;;;;;;;;10529125;28;20491;-77
2023/07/26 03:58:31;;;;;;;8.98;3.92;;;;;;;;;;10530877;28;20485;-76
2023/07/26 04:03:34;;;;;;;3.78;1.95;;;;;;;;;;10524995;28;20040;-77
2023/07/26 04:08:39;;;;;;;8.77;4.05;;;;;;;;;;10529707;28;20060;-76
2023/07/26 04:13:42;;;;;;;8.65;4.53;;;;;;;;;;10528370;28;20097;-78
2023/07/26 04:18:45;;;;;;;10.65;5.07;;;;;;;;;;10534532;28;20421;-78
2023/07/26 04:23:49;;;;;;;10.65;5.25;;;;;;;;;;10528766;28;20032;-77
2023/07/26 04:28:52;;;;;;;13.65;5.80;;;;;;;;;;10526736;28;20513;-76
2023/07/26 04:33:55;;;;;;;12.77;5.28;;;;;;;;;;10540655;28;20107;-76
2023/07/26 04:38:59;;;;;;;13.10;5.70;;;;;;;;;;10526597;28;20353;-76
2023/07/26 04:44:02;;;;;;;10.27;5.30;;;;;;;;;;10530225;28;20042;-75
2023/07/26 04:49:05;;;;;;;10.07;5.18;;;;;;;;;;10524473;28;20098;-76
2023/07/26 04:54:09;;;;;;;12.43;5.83;;;;;;;;;;10523775;28;20032;-76
2023/07/26 04:59:12;;;;;;;13.25;5.90;;;;;;;;;;10522076;28;20368;-75
2023/07/26 05:04:15;;;;;;;17.17;6.20;;;;;;;;;;10523208;28;20116;-75
2023/07/26 05:09:19;;;;;;;19.77;7.23;;;;;;;;;;10525816;28;20368;-75
2023/07/26 05:14:22;;;;;;;15.05;7.28;;;;;;;;;;10527074;28;20097;-74
2023/07/26 05:19:25;;;;;;;17.38;8.25;;;;;;;;;;10523714;28;20040;-76
2023/07/26 05:24:29;;;;;;;18.42;8.65;;;;;;;;;;10526479;28;20151;-77
2023/07/26 05:29:31;;;;;;;19.30;8.57;;;;;;;;;;10531602;28;20112;-73
2023/07/26 05:34:35;;;;;;;16.13;8.30;;;;;;;;;;10523670;28;20036;-75
2023/07/26 05:39:40;;;;;;;18.52;8.13;;;;;;;;;;10523858;28;20107;-74
2023/07/26 05:44:43;;;;;;;13.93;6.63;;;;;;;;;;10523635;28;20044;-74
2023/07/26 05:49:45;;;;;;;16.67;8.77;;;;;;;;;;10519444;28;20052;-74
2023/07/26 05:54:49;;;;;;;21.50;8.33;;;;;;;;;;10526897;28;20036;-74
2023/07/26 05:59:52;;;;;;;15.73;7.95;;;;;;;;;;10525231;28;20060;-75
2023/07/26 06:04:55;;;;;;;21.37;8.43;;;;;;;;;;10531529;28;20063;-75
2023/07/26 06:09:59;;;;;;;21.70;10.10;;;;;;;;;;10525627;28;20110;-75
2023/07/26 06:15:02;;;;;;;20.65;8.55;;;;;;;;;;10529843;28;20490;-75
2023/07/26 06:20:14;;;;;;;19.70;9.52;;;;;;;;;;10530325;28;20046;-76
2023/07/26 06:25:18;;;;;;;12.32;6.55;;;;;;;;;;10524036;28;20032;-75
2023/07/26 06:30:22;;;;;;;19.50;8.93;;;;;;;;;;10521626;28;20051;-74
2023/07/26 06:35:24;;;;;;;11.30;6.38;;;;;;;;;;10528891;28;20036;-75
2023/07/26 06:40:28;;;;;;;15.48;6.38;;;;;;;;;;10533916;28;20438;-76
2023/07/26 06:45:31;;;;;;;20.70;10.05;;;;;;;;;;10529206;28;20056;-74
2023/07/26 06:50:38;;;;;;;16.48;7.50;;;;;;;;;;10525549;28;20491;-75
2023/07/26 06:55:43;;;;;;;17.50;8.55;;;;;;;;;;10527176;28;20051;-76
2023/07/26 07:00:46;;;;;;;16.85;7.22;;;;;;;;;;10526194;28;20123;-76
2023/07/26 07:05:49;;;;;;;17.27;8.10;;;;;;;;;;10533427;28;20119;-75
2023/07/26 07:10:54;;;;;;;18.27;8.43;;;;;;;;;;10525245;28;20121;-76
2023/07/26 07:15:56;;;;;;;14.23;6.18;;;;;;;;;;10533913;28;20100;-75
2023/07/26 07:21:00;;;;;;;10.37;4.43;;;;;;;;;;10535974;28;20035;-75
2023/07/26 07:26:03;;;;;;;;;;;;;;;;;;10533615;28;20101;-75
2023/07/26 07:31:07;;;;;;;9.10;4.15;;;;;;;;;;10529816;28;20300;-76
2023/07/26 07:36:15;;;;;;;10.32;5.60;;;;;;;;;;10533250;28;20108;-75
2023/07/26 07:41:18;;;;;;;9.65;4.25;;;;;;;;;;10532132;28;20037;-76
2023/07/26 07:46:24;;;;;;;7.90;4.67;;;;;;;;;;10534690;28;20448;-74
2023/07/26 07:51:27;;;;;;;7.97;3.90;;;;;;;;;;10525206;28;20033;-75
2023/07/26 07:56:30;;;;;;;6.07;3.67;;;;;;;;;;10526281;28;20064;-75
2023/07/26 08:01:34;;;;;;;8.10;3.57;;;;;;;;;;10530957;28;20484;-74
2023/07/26 08:06:38;;;;;;;7.32;3.88;;;;;;;;;;10529213;28;20067;-75
2023/07/26 08:11:41;;;;;;;7.65;3.97;;;;;;;;;;10529801;28;20046;-75
2023/07/26 08:16:46;;;;;;;7.50;4.10;;;;;;;;;;10532007;28;20093;-74
2023/07/26 08:21:49;;;;;;;7.82;4.43;;;;;;;;;;10523928;28;20165;-74
2023/07/26 08:26:52;;;;;;;10.20;4.68;;;;;;;;;;10522655;28;20044;-75
2023/07/26 08:31:56;;;;;;;6.90;4.18;;;;;;;;;;10523940;28;20043;-75
2023/07/26 08:37:00;;;;;;;7.85;4.32;;;;;;;;;;10530391;28;20409;-74
2023/07/26 08:42:03;;;;;;;4.45;2.90;;;;;;;;;;10524626;28;20074;-76
2023/07/26 08:47:08;;;;;;;5.63;3.22;;;;;;;;;;10526056;28;20479;-75
2023/07/26 08:52:11;;;;;;;6.70;3.28;;;;;;;;;;10526696;28;20072;-75
2023/07/26 08:57:15;;;;;;;5.53;3.05;;;;;;;;;;10522115;28;20040;-75
2023/07/26 09:02:20;;;;;;;4.45;2.47;;;;;;;;;;10542532;28;20036;-74
2023/07/26 09:07:23;;;;;;;6.32;2.58;;;;;;;;;;10524861;28;20059;-75
2023/07/26 09:12:26;;;;;;;3.75;2.70;;;;;;;;;;10519800;28;20032;-75
2023/07/26 09:17:40;;;;;;;2.63;2.10;;;;;;;;;;10520719;28;20040;-75
2023/07/26 09:22:43;;;;;;;2.47;1.80;;;;;;;;;;10520428;28;20051;-75
2023/07/26 09:27:52;;;;;;;1.48;1.20;;;;;;;;;;10540208;27;20155;-75
2023/07/26 09:32:56;;;;;;;4.00;2.70;;;;;;;;;;10522241;28;20070;-75
2023/07/26 09:38:01;;;;;;;3.08;2.35;;;;;;;;;;10522395;28;20044;-75
2023/07/26 09:43:04;;;;;;;3.30;1.73;;;;;;;;;;10524133;28;20172;-75
2023/07/26 09:48:07;;;;;;;;;;;;;;;;;;10541505;27;20127;-74
2023/07/26 09:53:23;;;;;;;4.38;2.53;;;;;;;;;;10522171;28;20013;-75
2023/07/26 09:58:29;;;;;;;3.38;2.10;;;;;;;;;;10524387;28;20043;-75
2023/07/26 10:03:34;;;;;;;3.95;2.63;;;;;;;;;;10523396;28;20044;-75
2023/07/26 10:08:41;;;;;;;3.47;2.00;;;;;;;;;;10517834;28;20138;-75
2023/07/26 10:13:44;;;;;;;2.13;1.90;;;;;;;;;;10519590;28;20055;-75
2023/07/26 10:18:48;;;;;;;2.15;1.73;;;;;;;;;;10519567;28;20056;-75
2023/07/26 10:23:53;;;;;;;3.38;1.98;;;;;;;;;;10521384;28;20040;-74
2023/07/26 10:29:00;;;;;;;1.63;1.23;;;;;;;;;;10522188;28;20036;-76
2023/07/26 10:34:03;;;;;;;2.75;1.63;;;;;;;;;;10524953;28;20426;-76
2023/07/26 10:39:09;;;;;;;4.53;2.42;;;;;;;;;;10526767;28;20062;-75
2023/07/26 10:44:12;;;;;;;1.55;1.45;;;;;;;;;;10519397;28;20036;-75
2023/07/26 10:49:20;;;;;;;1.80;1.70;;;;;;;;;;10523840;28;20378;-76
2023/07/26 10:54:35;;;;;;;3.13;2.35;;;;;;;;;;10525466;28;20048;-76
2023/07/26 10:59:49;;;;;;;1.95;1.30;;;;;;;;;;10526413;28;20126;-76
2023/07/26 11:04:57;;;;;;;2.55;2.20;;;;;;;;;;10533272;28;20090;-76
2023/07/26 11:10:15;;;;;;;2.30;1.13;;;;;;;;;;10530259;28;20501;-77
2023/07/26 11:15:30;;;;;;;2.42;1.50;;;;;;;;;;10529903;28;20028;-75
2023/07/26 11:20:54;;;;;;;2.88;1.50;;;;;;;;;;10533425;28;20036;-76
2023/07/26 11:25:57;;;;;;;2.20;1.15;;;;;;;;;;10531853;28;20494;-76
2023/07/26 11:31:01;;;;;;;1.45;1.35;;;;;;;;;;10524778;28;20703;-76
2023/07/26 11:36:05;;;;;;;2.30;1.60;;;;;;;;;;10532164;28;20068;-76
2023/07/26 11:41:08;;;;;;;2.40;1.73;;;;;;;;;;10528206;28;20478;-76
2023/07/26 11:46:13;;;;;;;2.58;1.73;;;;;;;;;;10541159;27;20124;-76
2023/07/26 11:51:17;;;;;;;3.03;1.67;;;;;;;;;;10522810;28;20040;-76
2023/07/26 11:56:28;;;;;;;3.50;1.98;;;;;;;;;;10526153;28;20052;-76
2023/07/26 12:01:33;;;;;;;1.65;1.30;;;;;;;;;;10529896;28;20039;-75
2023/07/26 12:06:37;;;;;;;5.32;2.58;;;;;;;;;;10530941;28;20059;-74
2023/07/26 12:11:41;;;;;;;1.80;1.20;;;;;;;;;;10525879;28;20469;-75
2023/07/26 12:16:50;;;;;;;3.42;1.35;;;;;;;;;;10532646;28;20050;-75
2023/07/26 12:21:53;;;;;;;3.28;1.88;;;;;;;;;;10532907;28;20047;-76
2023/07/26 12:27:00;;;;;;;5.53;2.27;;;;;;;;;;10527360;28;20040;-76
2023/07/26 12:32:05;;;;;;;3.10;1.95;;;;;;;;;;10525981;28;20120;-73
2023/07/26 12:37:32;;;;;;;3.25;1.95;;;;;;;;;;10526968;28;20032;-75
2023/07/26 12:42:36;;;;;;;5.05;2.45;;;;;;;;;;10528829;28;20119;-74
2023/07/26 12:47:40;;;;;;;5.13;2.45;;;;;;;;;;10527411;28;20091;-74
2023/07/26 12:52:42;;;;;;;2.72;1.58;;;;;;;;;;10536646;28;20074;-75
2023/07/26 12:57:45;;;;;;;4.88;2.30;;;;;;;;;;10537073;28;20426;-74
2023/07/26 13:02:49;;;;;;;4.70;1.70;;;;;;;;;;10525001;28;20050;-74
2023/07/26 13:07:53;;;;;;;5.50;2.00;;;;;;;;;;10533022;28;20044;-75
2023/07/26 13:12:56;;;;;;;;;;;;;;;;;;10524900;28;20572;-74
2023/07/26 13:18:00;;;;;;;4.43;1.50;;;;;;;;;;10526056;28;19920;-74
2023/07/26 13:23:02;;;;;;;2.20;1.65;;;;;;;;;;10523325;28;20097;-74
2023/07/26 13:28:05;;;;;;;2.00;1.80;;;;;;;;;;10524766;28;20121;-74
2023/07/26 13:33:09;;;;;;;4.90;1.93;;;;;;;;;;10523121;28;20028;-73
2023/07/26 13:38:12;;;;;;;2.38;1.42;;;;;;;;;;10522543;28;20582;-74
2023/07/26 13:43:15;;;;;;;1.95;1.20;;;;;;;;;;10532530;28;20035;-73
2023/07/26 13:48:19;;;;;;;1.17;1.10;;;;;;;;;;10533702;28;20046;-72
2023/07/26 13:53:22;;;;;;;1.23;1.05;;;;;;;;;;10524609;28;20122;-72
2023/07/26 13:58:25;;;;;;;1.75;1.33;;;;;;;;;;10528245;28;20052;-72
2023/07/26 14:03:29;;;;;;;3.70;1.60;;;;;;;;;;10536183;28;20036;-73
2023/07/26 14:08:32;;;;;;;1.73;1.00;;;;;;;;;;10535208;28;20301;-73
2023/07/26 14:13:35;;;;;;;2.93;1.83;;;;;;;;;;10525106;28;20114;-73
2023/07/26 14:18:39;;;;;;;3.50;1.63;;;;;;;;;;10522720;28;20345;-73
2023/07/26 14:23:42;;;;;;;1.75;1.30;;;;;;;;;;10528280;28;20077;-73
2023/07/26 14:28:45;;;;;;;4.00;1.47;;;;;;;;;;10532040;28;20040;-74
2023/07/26 14:33:50;;;;;;;2.43;1.43;;;;;;;;;;10542697;28;20528;-74
2023/07/26 14:38:53;;;;;;;2.22;1.42;;;;;;;;;;10542238;28;20498;-74
2023/07/26 14:43:56;;;;;;;1.17;1.07;;;;;;;;;;10529770;28;20187;-74
2023/07/26 14:49:00;;;;;;;1.47;1.37;;;;;;;;;;10531613;28;20414;-74
2023/07/26 14:54:02;;;;;;;1.92;1.00;;;;;;;;;;10528386;28;20074;-74
2023/07/26 14:59:05;;;;;;;1.47;1.17;;;;;;;;;;10529942;28;20050;-75
2023/07/26 15:04:09;;;;;;;3.40;1.40;;;;;;;;;;10530064;28;20127;-74
2023/07/26 15:09:12;;;;;;;2.47;1.30;;;;;;;;;;10528585;28;20063;-75
2023/07/26 15:14:14;;;;;;;1.23;0.67;;;;;;;;;;10523936;28;20127;-75
2023/07/26 15:19:18;;;;;;;1.40;1.20;;;;;;;;;;10532494;28;20044;-75
2023/07/26 15:24:21;;;;;;;1.38;1.10;;;;;;;;;;10539992;28;20040;-74
2023/07/26 15:29:26;;;;;;;1.00;0.80;;;;;;;;;;10531212;28;20043;-74
2023/07/26 15:34:30;;;;;;;1.42;1.05;;;;;;;;;;10527484;28;20032;-76
2023/07/26 15:39:32;;;;;;;0.98;0.85;;;;;;;;;;10532736;28;20403;-75
2023/07/26 15:44:36;;;;;;;3.05;1.20;;;;;;;;;;10541975;28;20040;-75
2023/07/26 15:49:40;;;;;;;2.03;1.10;;;;;;;;;;10531001;28;20039;-75
2023/07/26 15:54:48;;;;;;;0.80;0.73;;;;;;;;;;10530392;28;20044;-75
2023/07/26 15:59:51;;;;;;;3.35;1.10;;;;;;;;;;10536733;28;22027;-75
2023/07/26 16:04:55;;;;;;;2.20;1.10;;;;;;;;;;10531490;28;20502;-75
2023/07/26 16:10:00;;;;;;;1.88;0.90;;;;;;;;;;10528588;28;20532;-75
2023/07/26 16:15:04;;;;;;;2.20;1.20;;;;;;;;;;10535888;28;20066;-74
2023/07/26 16:20:11;;;;;;;1.23;0.90;;;;;;;;;;10531769;28;20491;-75
2023/07/26 16:25:14;;;;;;;1.45;1.00;;;;;;;;;;10527115;28;20035;-75
2023/07/26 16:30:18;;;;;;;1.98;1.00;;;;;;;;;;10528606;28;20548;-76
2023/07/26 16:35:22;;;;;;;3.30;0.90;;;;;;;;;;10521454;28;20048;-75
2023/07/26 16:40:25;;;;;;;2.17;1.00;;;;;;;;;;10528569;28;20036;-75
2023/07/26 16:45:28;;;;;;;1.30;0.82;;;;;;;;;;10527663;28;20789;-75
2023/07/26 16:50:33;;;;;;;1.20;0.90;;;;;;;;;;10528469;28;20036;-75
2023/07/26 16:55:36;;;;;;;2.13;0.75;;;;;;;;;;10526278;28;20040;-75
2023/07/26 17:00:39;;;;;;;2.60;1.40;;;;;;;;;;10527583;28;20087;-75
2023/07/26 17:05:46;;;;;;;2.10;1.23;;;;;;;;;;10532268;28;20047;-75
2023/07/26 17:10:49;;;;;;;2.40;1.30;;;;;;;;;;10534065;28;20131;-75
2023/07/26 17:15:52;;;;;;;2.65;1.80;;;;;;;;;;10533008;28;20068;-76
2023/07/26 17:20:56;;;;;;;2.17;1.40;;;;;;;;;;10532789;28;20085;-77
2023/07/26 17:25:59;;;;;;;3.38;1.35;;;;;;;;;;10526952;28;20097;-76
2023/07/26 17:31:03;;;;;;;2.53;1.30;;;;;;;;;;10527380;28;20116;-75
2023/07/26 17:36:14;;;;;;;1.85;1.30;;;;;;;;;;10527501;28;20385;-75
2023/07/26 17:41:17;;;;;;;2.80;1.02;;;;;;;;;;10527447;28;20576;-75
2023/07/26 17:46:21;;;;;;;2.05;1.27;;;;;;;;;;10519632;28;21291;-75
2023/07/26 17:51:26;;;;;;;2.13;1.52;;;;;;;;;;10521367;28;20031;-75
2023/07/26 17:56:28;;;;;;;2.95;1.95;;;;;;;;;;10531934;28;20036;-75
2023/07/26 18:01:31;;;;;;;2.87;1.53;;;;;;;;;;10532177;28;20036;-75
2023/07/26 18:06:35;;;;;;;4.63;1.63;;;;;;;;;;10526953;28;20047;-75
2023/07/26 18:11:38;;;;;;;3.35;1.30;;;;;;;;;;10523089;28;20119;-76
2023/07/26 18:16:43;;;;;;;4.53;1.98;;;;;;;;;;10526327;28;20120;-75
2023/07/26 18:21:50;;;;;;;4.30;1.80;;;;;;;;;;10524941;28;20040;-75
2023/07/26 18:26:54;;;;;;;3.83;2.00;;;;;;;;;;10522514;28;20143;-75
2023/07/26 18:31:57;;;;;;;5.65;1.80;;;;;;;;;;10524232;28;20047;-74
2023/07/26 18:37:01;;;;;;;4.33;1.77;;;;;;;;;;10522135;28;20063;-76
2023/07/26 18:42:04;;;;;;;2.00;1.60;;;;;;;;;;10523473;28;20036;-75
2023/07/26 18:47:08;;;;;;;4.15;1.95;;;;;;;;;;10527804;28;20032;-74
2023/07/26 18:52:12;;;;;;;2.70;1.40;;;;;;;;;;10529578;28;20036;-76
2023/07/26 18:57:15;;;;;;;4.57;2.10;;;;;;;;;;10525784;28;20047;-75
2023/07/26 19:02:17;;;;;;;3.45;1.25;;;;;;;;;;10525506;28;20400;-75
2023/07/26 19:07:21;;;;;;;3.53;1.40;;;;;;;;;;10526380;28;20043;-75
2023/07/26 19:12:24;;;;;;;2.35;1.17;;;;;;;;;;10531233;28;20111;-74
2023/07/26 19:17:27;;;;;;;2.10;1.33;;;;;;;;;;10523520;28;20529;-74
2023/07/26 19:22:32;;;;;;;3.13;1.83;;;;;;;;;;10530877;28;20423;-75
2023/07/26 19:27:34;;;;;;;1.90;0.85;;;;;;;;;;10528938;28;20040;-76
2023/07/26 19:32:37;;;;;;;3.13;1.45;;;;;;;;;;10525105;28;20055;-77
2023/07/26 19:37:41;;;;;;;3.20;1.30;;;;;;;;;;10536099;28;20448;-75
2023/07/26 19:42:43;;;;;;;;;;;;;;;;;;10543823;28;20042;-74
2023/07/26 19:47:46;;;;;;;2.80;1.52;;;;;;;;;;10528510;28;20406;-75
2023/07/26 19:52:51;;;;;;;1.65;0.95;;;;;;;;;;10534084;28;20040;-75
2023/07/26 19:57:54;;;;;;;3.85;1.50;;;;;;;;;;10528259;28;20067;-76
2023/07/26 20:02:56;;;;;;;2.05;0.98;;;;;;;;;;10531862;28;20048;-74
2023/07/26 20:08:00;;;;;;;2.40;1.25;;;;;;;;;;10532839;28;20467;-75
2023/07/26 20:13:04;;;;;;;3.83;1.42;;;;;;;;;;10531712;28;20477;-76
2023/07/26 20:18:07;;;;;;;0.85;0.65;;;;;;;;;;10528169;28;20517;-76
2023/07/26 20:23:11;;;;;;;2.03;1.00;;;;;;;;;;10530119;28;20093;-75
2023/07/26 20:28:14;;;;;;;2.45;0.77;;;;;;;;;;10542524;28;20560;-75
2023/07/26 20:33:17;;;;;;;2.38;1.00;;;;;;;;;;10542430;28;20042;-76
2023/07/26 20:38:20;;;;;;;3.38;1.33;;;;;;;;;;10530257;28;20036;-75
2023/07/26 20:43:23;;;;;;;;;;;;;;;;;;10534014;28;20047;-75
2023/07/26 20:48:25;;;;;;;1.45;0.85;;;;;;;;;;10530066;28;20235;-75
2023/07/26 20:53:29;;;;;;;1.92;1.17;;;;;;;;;;10531751;28;20073;-75
2023/07/26 20:58:32;;;;;;;;;;;;;;;;;;10529825;28;20498;-76
2023/07/26 21:03:34;;;;;;;2.17;1.30;;;;;;;;;;10524323;28;19920;-78
2023/07/26 21:08:39;;;;;;;2.27;1.10;;;;;;;;;;10530629;28;20043;-77
2023/07/26 21:13:42;;;;;;;1.98;1.15;;;;;;;;;;10526089;28;20039;-76
2023/07/26 21:18:45;;;;;;;1.50;0.88;;;;;;;;;;10534918;28;20560;-74
2023/07/26 21:23:49;;;;;;;1.87;1.20;;;;;;;;;;10531980;28;20055;-74
2023/07/26 21:28:51;;;;;;;1.58;1.20;;;;;;;;;;10528835;28;20047;-75
2023/07/26 21:33:54;;;;;;;2.58;1.42;;;;;;;;;;10524351;28;20131;-74
2023/07/26 21:38:59;;;;;;;1.30;0.90;;;;;;;;;;10525522;28;20075;-75
2023/07/26 21:44:02;;;;;;;2.47;1.30;;;;;;;;;;10528984;28;20122;-76
2023/07/26 21:49:06;;;;;;;2.92;1.33;;;;;;;;;;10525616;28;20050;-76
2023/07/26 21:54:10;;;;;;;1.98;1.05;;;;;;;;;;10526779;28;20042;-76
2023/07/26 21:59:12;;;;;;;1.50;0.63;;;;;;;;;;10526421;28;20138;-76
2023/07/26 22:04:15;;;;;;;0.73;0.60;;;;;;;;;;10526483;28;20103;-72
2023/07/26 22:09:20;;;;;;;2.43;1.40;;;;;;;;;;10529674;28;20036;-75
2023/07/26 22:14:23;;;;;;;2.92;1.30;;;;;;;;;;10532097;28;20040;-75
2023/07/26 22:19:26;;;;;;;2.90;1.50;;;;;;;;;;10525373;28;20131;-75
2023/07/26 22:24:30;;;;;;;1.13;0.82;;;;;;;;;;10520317;28;20048;-74
2023/07/26 22:29:33;;;;;;;3.45;1.27;;;;;;;;;;10528220;28;20414;-75
2023/07/26 22:34:36;;;;;;;1.17;0.93;;;;;;;;;;10523498;28;20036;-75
2023/07/26 22:39:41;;;;;;;4.00;1.20;;;;;;;;;;10521097;28;20049;-76
2023/07/26 22:44:44;;;;;;;3.00;1.00;;;;;;;;;;10520810;28;20128;-75
2023/07/26 22:49:53;;;;;;;2.40;1.15;;;;;;;;;;10530872;28;20782;-76
2023/07/26 22:54:57;;;;;;;0.55;0.55;;;;;;;;;;10550683;27;20046;-75
2023/07/26 22:59:59;;;;;;;;;;;;;;;;;;10537372;28;20036;-76
2023/07/26 23:05:02;;;;;;;3.03;1.48;;;;;;;;;;10534943;28;19931;-75
2023/07/26 23:10:06;;;;;;;2.57;1.43;;;;;;;;;;10523630;28;20036;-75
2023/07/26 23:15:10;;;;;;;3.47;1.50;;;;;;;;;;10540659;28;20039;-75
2023/07/26 23:20:12;;;;;;;3.17;1.60;;;;;;;;;;10534426;28;20042;-75
2023/07/26 23:25:17;;;;;;;2.47;1.10;;;;;;;;;;10532027;28;20306;-75
2023/07/26 23:30:19;;;;;;;1.83;0.93;;;;;;;;;;10529225;28;20127;-75
2023/07/26 23:35:22;;;;;;;1.02;0.82;;;;;;;;;;10532065;28;20043;-75
2023/07/26 23:40:26;;;;;;;3.05;1.63;;;;;;;;;;10531147;28;20036;-75
2023/07/26 23:45:28;;;;;;;;;;;;;;;;;;10532077;28;20046;-73
2023/07/26 23:50:31;;;;;;;2.17;1.10;;;;;;;;;;10529084;28;19927;-72
2023/07/26 23:55:35;;;;;;;2.97;1.52;;;;;;;;;;10544793;28;20045;-73
